Time;durP1;ratioP1;P1;durP2;ratioP2;P2;SDS_P1;SDS_P2;PMS_P1;PMS_P2;Temp;Humidity;BMP_temperature;BMP_pressure;BME280_temperature;BME280_humidity;BME280_pressure;Samples;Min_cycle;Max_cycle;Signal;HPM_P1;HPM_P2
2023/01/30 00:01:22;;;;;;;19.63;10.40;;;102.80;2227.20;;;;;;5066804;28;19908;-74
2023/01/30 00:03:48;;;;;;;17.45;10.18;;;102.80;2227.20;;;;;;5041497;28;20045;-74
2023/01/30 00:06:13;;;;;;;;;;;102.80;2227.20;;;;;;5064717;28;20017;-75
2023/01/30 00:08:39;;;;;;;21.75;10.95;;;102.80;2227.20;;;;;;5056675;28;19909;-75
2023/01/30 00:11:06;;;;;;;;;;;102.80;2227.20;;;;;;5043294;28;20021;-74
2023/01/30 00:13:31;;;;;;;18.58;10.55;;;102.80;2227.20;;;;;;5051112;28;20003;-77
2023/01/30 00:15:57;;;;;;;;;;;102.90;2227.20;;;;;;5064611;28;20114;-77
2023/01/30 00:18:23;;;;;;;20.15;9.68;;;102.80;2227.20;;;;;;5065953;28;19964;-76
2023/01/30 00:20:53;;;;;;;;;;;102.90;2227.20;;;;;;5042162;28;20047;-74
2023/01/30 00:23:19;;;;;;;19.38;10.68;;;102.90;2227.20;;;;;;5069183;28;19927;-74
2023/01/30 00:25:45;;;;;;;;;;;102.90;2227.20;;;;;;5061438;28;20037;-74
2023/01/30 00:28:10;;;;;;;19.38;10.07;;;102.80;2227.20;;;;;;5058667;28;19943;-74
2023/01/30 00:30:36;;;;;;;;;;;102.80;2227.20;;;;;;5050586;28;20020;-74
2023/01/30 00:33:02;;;;;;;20.60;10.15;;;102.80;2227.20;;;;;;5061914;28;19911;-74
2023/01/30 00:35:27;;;;;;;;;;;102.80;2227.20;;;;;;5061011;28;20060;-74
2023/01/30 00:37:57;;;;;;;18.52;9.18;;;102.80;2227.20;;;;;;5061050;28;19908;-74
2023/01/30 00:40:23;;;;;;;16.73;10.05;;;102.90;2227.20;;;;;;5065701;28;20021;-74
2023/01/30 00:48:18;;;;;;;19.48;10.38;;;102.70;2227.20;;;;;;5067358;28;20094;-74
2023/01/30 00:50:44;;;;;;;;;;;102.70;2227.20;;;;;;5063463;28;20021;-74
2023/01/30 00:53:14;;;;;;;17.95;9.68;;;102.70;2227.20;;;;;;5058267;28;19921;-74
2023/01/30 00:55:42;;;;;;;16.83;9.60;;;102.70;2227.20;;;;;;5060091;28;20064;-73
2023/01/30 00:58:08;;;;;;;17.23;9.23;;;102.50;2227.20;;;;;;5041710;28;20033;-74
2023/01/30 01:00:34;;;;;;;20.60;10.57;;;102.40;2227.20;;;;;;5056688;28;20041;-74
2023/01/30 01:03:00;;;;;;;;;;;102.50;2227.20;;;;;;5065307;28;20184;-74
2023/01/30 01:05:26;;;;;;;18.10;9.65;;;102.50;2227.20;;;;;;5042320;28;19983;-74
2023/01/30 01:07:52;;;;;;;19.50;10.75;;;102.50;2227.20;;;;;;5064747;28;20453;-74
2023/01/30 01:10:17;;;;;;;;;;;102.40;2227.20;;;;;;5060674;28;20112;-74
2023/01/30 01:12:43;;;;;;;18.30;10.32;;;102.50;2227.20;;;;;;5045113;28;20291;-74
2023/01/30 01:15:10;;;;;;;;;;;102.50;2227.20;;;;;;5045596;28;20047;-74
2023/01/30 01:17:36;;;;;;;19.95;9.75;;;102.40;2227.20;;;;;;5068219;28;19915;-75
2023/01/30 01:20:03;;;;;;;;;;;102.40;2227.20;;;;;;5066277;28;20028;-74
2023/01/30 01:22:29;;;;;;;20.52;9.40;;;102.50;2227.20;;;;;;5064242;28;19920;-74
2023/01/30 01:24:54;;;;;;;;;;;102.40;2227.20;;;;;;5062951;28;20052;-74
2023/01/30 01:27:20;;;;;;;24.98;11.80;;;102.50;2227.20;;;;;;5062347;28;19999;-74
2023/01/30 01:29:45;;;;;;;;;;;102.50;2227.20;;;;;;5053892;28;20466;-75
2023/01/30 01:32:11;;;;;;;23.83;11.75;;;102.50;2227.20;;;;;;5054545;28;20357;-75
2023/01/30 01:34:37;;;;;;;;;;;102.50;2227.20;;;;;;5063055;28;20064;-74
2023/01/30 01:37:02;;;;;;;28.35;13.23;;;102.60;2227.20;;;;;;5062233;28;19908;-73
2023/01/30 01:41:00;;;;;;;;;;;102.60;2227.20;;;;;;5062509;28;20025;-73
2023/01/30 01:42:14;;;;;;;21.70;11.65;;;102.60;2227.20;;;;;;5062793;28;19912;-74
2023/01/30 01:44:58;;;;;;;;;;;102.60;2227.20;;;;;;5062777;28;20040;-74
2023/01/30 01:47:24;;;;;;;26.05;13.40;;;102.50;2227.20;;;;;;5063948;28;20365;-74
2023/01/30 01:49:49;;;;;;;;;;;102.60;2227.20;;;;;;5062594;28;20025;-74
2023/01/30 01:52:16;;;;;;;21.92;11.57;;;102.50;2227.20;;;;;;5062836;28;19978;-74
2023/01/30 01:54:48;;;;;;;24.00;13.48;;;102.50;2227.20;;;;;;5062802;28;20029;-74
2023/01/30 01:57:30;;;;;;;24.88;12.43;;;102.60;2227.20;;;;;;5062290;28;20033;-74
2023/01/30 02:00:11;;;;;;;24.83;12.85;;;102.50;2227.20;;;;;;5062656;28;20057;-74
2023/01/30 02:02:40;;;;;;;28.42;13.80;;;102.60;2227.20;;;;;;5062809;28;20021;-74
2023/01/30 02:05:09;;;;;;;23.27;12.50;;;102.60;2227.20;;;;;;5062110;28;20406;-74
2023/01/30 02:07:50;;;;;;;26.70;14.23;;;102.60;2227.20;;;;;;5044987;28;20024;-74
2023/01/30 02:10:24;;;;;;;25.45;13.18;;;102.60;2227.20;;;;;;5062585;28;20116;-74
2023/01/30 02:12:50;;;;;;;26.63;13.57;;;102.50;2227.20;;;;;;5061698;28;20021;-74
2023/01/30 02:15:17;;;;;;;27.30;13.02;;;102.50;2227.20;;;;;;5062837;28;20020;-75
2023/01/30 02:17:43;;;;;;;24.60;13.15;;;102.60;2227.20;;;;;;5045377;28;20039;-74
2023/01/30 02:20:09;;;;;;;;;;;102.70;2227.20;;;;;;5064325;28;20420;-73
2023/01/30 02:23:24;;;;;;;26.60;13.85;;;102.70;2227.20;;;;;;5061978;28;19999;-74
2023/01/30 02:26:08;;;;;;;28.17;13.15;;;102.60;2227.20;;;;;;4971813;28;20050;-74
2023/01/30 02:29:01;;;;;;;25.48;13.15;;;102.60;2227.20;;;;;;4969480;28;20022;-74
2023/01/30 02:32:06;;;;;;;22.65;13.02;;;102.60;2227.20;;;;;;4971213;28;20034;-72
2023/01/30 02:35:10;;;;;;;23.75;12.70;;;102.50;2227.20;;;;;;4970444;28;20059;-74
2023/01/30 02:37:57;;;;;;;26.90;13.55;;;102.50;2227.20;;;;;;4964546;28;20432;-74
2023/01/30 02:40:42;;;;;;;;;;;102.40;2227.20;;;;;;4974794;28;20023;-74
2023/01/30 02:43:30;;;;;;;24.80;12.75;;;102.50;2227.20;;;;;;4974891;28;19910;-74
2023/01/30 02:46:16;;;;;;;28.27;14.55;;;102.50;2227.20;;;;;;4970796;28;20031;-74
2023/01/30 02:49:10;;;;;;;24.63;13.13;;;102.40;2227.20;;;;;;4974002;28;20031;-74
2023/01/30 02:51:37;;;;;;;27.17;14.27;;;102.40;2227.20;;;;;;4967259;28;20027;-74
2023/01/30 02:54:09;;;;;;;28.60;13.73;;;102.40;2227.20;;;;;;4975289;28;20055;-74
2023/01/30 02:56:51;;;;;;;27.63;15.20;;;102.40;2227.20;;;;;;4963389;28;20102;-73
2023/01/30 02:59:27;;;;;;;26.13;13.15;;;102.40;2227.20;;;;;;4975139;28;20062;-74
2023/01/30 03:02:07;;;;;;;25.58;13.23;;;102.40;2227.20;;;;;;5016452;28;20036;-74
2023/01/30 03:04:36;;;;;;;30.63;13.55;;;102.40;2227.20;;;;;;5066881;28;20032;-74
2023/01/30 03:07:07;;;;;;;27.15;14.35;;;102.50;2227.20;;;;;;5040139;28;20021;-77
2023/01/30 03:09:41;;;;;;;26.00;13.05;;;102.50;2227.20;;;;;;5055588;28;20021;-74
2023/01/30 03:12:36;;;;;;;28.45;14.25;;;77.70;2227.20;;;;;;5055565;28;20017;-75
2023/01/30 03:15:30;;;;;;;23.83;12.52;;;77.50;2227.20;;;;;;5055449;28;20709;-74
2023/01/30 03:17:56;;;;;;;25.30;12.63;;;77.50;2227.20;;;;;;5055388;28;20475;-74
2023/01/30 03:20:22;;;;;;;24.38;12.57;;;77.50;2227.20;;;;;;5055423;28;20104;-78
2023/01/30 03:22:48;;;;;;;;;;;77.60;2227.20;;;;;;5055650;28;20060;-74
2023/01/30 03:25:19;;;;;;;21.45;11.27;;;77.70;2227.20;;;;;;5055026;28;19959;-75
2023/01/30 03:27:45;;;;;;;28.02;11.95;;;102.40;2227.20;;;;;;5055297;28;20021;-75
2023/01/30 03:30:11;;;;;;;;;;;102.50;2227.20;;;;;;5037663;28;20029;-75
2023/01/30 03:32:37;;;;;;;18.08;9.32;;;102.60;2227.20;;;;;;5055175;28;19905;-74
2023/01/30 03:35:03;;;;;;;;;;;102.60;2227.20;;;;;;5055558;28;20505;-79
2023/01/30 03:37:29;;;;;;;19.40;11.15;;;102.60;2227.20;;;;;;5053870;28;20051;-76
2023/01/30 03:39:54;;;;;;;;;;;102.70;2227.20;;;;;;5055420;28;20581;-74
2023/01/30 03:42:20;;;;;;;20.35;11.50;;;102.70;2227.20;;;;;;5054909;28;19909;-74
2023/01/30 03:44:45;;;;;;;;;;;102.70;2227.20;;;;;;5056217;28;20041;-74
2023/01/30 03:47:11;;;;;;;22.05;12.52;;;102.70;2227.20;;;;;;5071540;28;19916;-74
2023/01/30 03:49:37;;;;;;;;;;;102.70;2227.20;;;;;;5062717;28;20051;-74
2023/01/30 03:52:03;;;;;;;21.10;10.77;;;102.60;2227.20;;;;;;5056643;28;20370;-75
2023/01/30 03:54:28;;;;;;;;;;;102.60;2227.20;;;;;;5057023;28;20024;-74
2023/01/30 03:56:54;;;;;;;20.90;11.48;;;102.70;2227.20;;;;;;5059419;28;20266;-75
2023/01/30 03:59:19;;;;;;;;;;;102.60;2227.20;;;;;;5060719;28;20017;-75
2023/01/30 04:01:45;;;;;;;22.55;11.65;;;102.60;2227.20;;;;;;5046024;28;19911;-74
2023/01/30 04:04:10;;;;;;;;;;;102.70;2227.20;;;;;;5059837;28;20037;-74
2023/01/30 04:06:36;;;;;;;25.88;13.60;;;102.60;2227.20;;;;;;5068393;28;20308;-75
2023/01/30 04:09:02;;;;;;;;;;;102.60;2227.20;;;;;;5071657;28;20535;-75
2023/01/30 04:11:27;;;;;;;22.85;11.52;;;102.60;2227.20;;;;;;5073754;28;19947;-75
2023/01/30 04:13:53;;;;;;;;;;;102.50;2227.20;;;;;;5042890;28;20071;-75
2023/01/30 04:16:22;;;;;;;21.77;11.45;;;102.50;2227.20;;;;;;5052923;28;19934;-74
2023/01/30 04:18:48;;;;;;;22.58;11.70;;;102.50;2227.20;;;;;;5066161;28;20021;-74
2023/01/30 04:21:14;;;;;;;;;;;102.50;2227.20;;;;;;5062096;28;20078;-75
2023/01/30 04:23:41;;;;;;;22.98;11.85;;;102.50;2227.20;;;;;;5055991;28;19963;-76
2023/01/30 04:26:07;;;;;;;24.85;11.93;;;102.50;2227.20;;;;;;5042720;28;20517;-76
2023/01/30 04:28:33;;;;;;;22.60;12.48;;;102.50;2227.20;;;;;;5059860;28;20104;-75
2023/01/30 04:30:58;;;;;;;;;;;102.50;2227.20;;;;;;5056196;28;20100;-74
2023/01/30 04:33:25;;;;;;;42.25;18.30;;;102.60;2227.20;;;;;;5057238;28;19905;-75
2023/01/30 04:35:54;;;;;;;;;;;102.60;2227.20;;;;;;5041960;28;20017;-78
2023/01/30 04:38:21;;;;;;;74.22;31.95;;;102.50;2227.20;;;;;;5056370;28;19904;-74
2023/01/30 04:40:51;;;;;;;68.22;27.95;;;102.70;2227.20;;;;;;5039032;28;20025;-74
2023/01/30 04:43:17;;;;;;;55.65;24.00;;;102.50;2227.20;;;;;;5040476;28;20071;-75
2023/01/30 04:45:44;;;;;;;60.05;25.58;;;102.50;2227.20;;;;;;5034896;28;20032;-75
2023/01/30 04:48:10;;;;;;;32.50;16.60;;;102.50;2227.20;;;;;;5042479;28;20029;-74
2023/01/30 04:50:36;;;;;;;;;;;102.50;2227.20;;;;;;5057093;28;20393;-74
2023/01/30 04:53:02;;;;;;;30.60;15.27;;;102.50;2227.20;;;;;;5061853;28;19917;-75
2023/01/30 04:55:27;;;;;;;;;;;102.50;2227.20;;;;;;5039889;28;20490;-75
2023/01/30 04:57:53;;;;;;;59.10;25.63;;;102.50;2227.20;;;;;;5052761;28;20255;-74
2023/01/30 05:00:18;;;;;;;;;;;102.50;2227.20;;;;;;5058363;28;20474;-74
2023/01/30 05:02:44;;;;;;;45.72;21.13;;;102.50;2227.20;;;;;;5058172;28;19904;-74
2023/01/30 05:05:10;;;;;;;;;;;102.50;2227.20;;;;;;5065825;28;20086;-76
2023/01/30 05:07:35;;;;;;;36.78;16.80;;;102.40;2227.20;;;;;;5061805;28;19904;-76
2023/01/30 05:10:01;;;;;;;;;;;102.40;2227.20;;;;;;5058408;28;20061;-74
2023/01/30 05:12:27;;;;;;;26.35;13.55;;;102.40;2227.20;;;;;;5055156;28;20412;-74
2023/01/30 05:14:53;;;;;;;;;;;102.40;2227.20;;;;;;5052947;28;20471;-74
2023/01/30 05:17:19;;;;;;;42.75;20.40;;;102.40;2227.20;;;;;;5057712;28;19919;-74
2023/01/30 05:19:44;;;;;;;;;;;102.40;2227.20;;;;;;5043134;28;20012;-74
2023/01/30 05:22:11;;;;;;;35.17;17.33;;;77.70;2227.20;;;;;;5034298;28;19954;-74
2023/01/30 05:24:36;;;;;;;35.28;17.15;;;77.70;2227.20;;;;;;5054970;28;20072;-74
2023/01/30 05:27:02;;;;;;;;;;;77.70;2227.20;;;;;;5046403;28;20051;-74
2023/01/30 05:29:28;;;;;;;27.60;13.82;;;77.70;2227.20;;;;;;5057291;28;19905;-75
2023/01/30 05:31:54;;;;;;;;;;;77.70;2227.20;;;;;;5042241;28;20082;-75
2023/01/30 05:34:20;;;;;;;29.40;13.75;;;77.60;2227.20;;;;;;5069579;28;20660;-74
2023/01/30 05:36:45;;;;;;;;;;;77.60;2227.20;;;;;;5057439;28;20372;-74
2023/01/30 05:39:11;;;;;;;36.33;19.30;;;77.60;2227.20;;;;;;5056773;28;20321;-74
2023/01/30 05:41:36;;;;;;;;;;;77.60;2227.20;;;;;;5040197;28;20025;-74
2023/01/30 05:44:02;;;;;;;38.30;16.75;;;77.60;2227.20;;;;;;5036845;28;19942;-74
2023/01/30 05:46:28;;;;;;;;;;;77.60;2227.20;;;;;;5040473;28;20107;-77
2023/01/30 05:48:53;;;;;;;31.38;15.77;;;77.70;2227.20;;;;;;5060932;28;19905;-74
2023/01/30 05:51:20;;;;;;;;;;;77.60;2227.20;;;;;;5053241;28;20386;-74
2023/01/30 05:53:46;;;;;;;24.23;11.48;;;77.60;2227.20;;;;;;5020151;28;20346;-74
2023/01/30 05:56:12;;;;;;;;;;;77.60;2227.20;;;;;;5016784;28;20076;-74
2023/01/30 05:58:37;;;;;;;29.05;14.35;;;77.70;2227.20;;;;;;5014901;28;19905;-78
2023/01/30 06:01:04;;;;;;;;;;;77.60;2227.20;;;;;;5017831;28;20026;-74
2023/01/30 06:03:30;;;;;;;37.42;16.27;;;77.60;2227.20;;;;;;5016299;28;19910;-74
2023/01/30 06:05:56;;;;;;;;;;;77.60;2227.20;;;;;;5018048;28;20369;-74
2023/01/30 06:08:21;;;;;;;30.38;14.85;;;77.60;2227.20;;;;;;5017052;28;20274;-74
2023/01/30 06:10:47;;;;;;;;;;;77.60;2227.20;;;;;;5017812;28;20018;-76
2023/01/30 06:13:13;;;;;;;30.58;15.25;;;77.60;2227.20;;;;;;5012061;28;20275;-74
2023/01/30 06:15:38;;;;;;;;;;;77.70;2227.20;;;;;;5023395;28;20018;-74
2023/01/30 06:18:04;;;;;;;34.13;16.17;;;77.60;2227.20;;;;;;5014446;28;19913;-76
2023/01/30 06:20:29;;;;;;;;;;;77.60;2227.20;;;;;;5016003;28;20026;-74
2023/01/30 06:22:55;;;;;;;33.85;15.65;;;77.60;2227.20;;;;;;5016442;28;19963;-74
2023/01/30 06:25:20;;;;;;;;;;;77.50;2227.20;;;;;;5018457;28;20561;-74
2023/01/30 06:27:46;;;;;;;37.95;16.38;;;77.40;2227.20;;;;;;5020270;28;20342;-74
2023/01/30 06:30:12;;;;;;;;;;;77.50;2227.20;;;;;;5017201;28;20022;-74
2023/01/30 06:32:38;;;;;;;34.35;16.30;;;77.30;2227.20;;;;;;5023888;28;19905;-74
2023/01/30 06:35:04;;;;;;;;;;;77.40;2227.20;;;;;;5021395;28;20391;-74
2023/01/30 06:37:29;;;;;;;29.08;14.52;;;77.50;2227.20;;;;;;5019263;28;20318;-75
2023/01/30 06:39:55;;;;;;;;;;;77.50;2227.20;;;;;;5021966;28;20159;-74
2023/01/30 06:42:20;;;;;;;29.10;14.15;;;77.50;2227.20;;;;;;5020033;28;19913;-74
2023/01/30 06:44:46;;;;;;;;;;;77.60;2227.20;;;;;;5023403;28;20038;-74
2023/01/30 06:47:12;;;;;;;26.23;12.07;;;77.60;2227.20;;;;;;5023895;28;19909;-74
2023/01/30 06:49:37;;;;;;;;;;;77.60;2227.20;;;;;;5020520;28;20037;-76
2023/01/30 06:52:03;;;;;;;38.45;17.38;;;77.60;2227.20;;;;;;5029596;28;19916;-75
2023/01/30 06:54:29;;;;;;;;;;;77.60;2227.20;;;;;;5057808;28;20502;-78
2023/01/30 06:56:55;;;;;;;38.85;19.35;;;77.70;2227.20;;;;;;5050689;28;20428;-78
2023/01/30 06:59:20;;;;;;;;;;;77.70;2227.20;;;;;;5046976;28;20029;-80
2023/01/30 07:01:46;;;;;;;25.13;13.68;;;77.70;2227.20;;;;;;5060788;28;19909;-78
2023/01/30 07:04:11;;;;;;;;;;;77.70;2227.20;;;;;;5043726;28;20477;-78
2023/01/30 07:06:37;;;;;;;21.98;11.18;;;102.40;2227.20;;;;;;5046480;28;19958;-79
2023/01/30 07:09:03;;;;;;;;;;;77.70;2227.20;;;;;;5044719;28;20119;-77
2023/01/30 07:11:30;;;;;;;21.25;11.52;;;77.70;2227.20;;;;;;5062701;28;20003;-82
2023/01/30 07:13:55;;;;;;;22.67;12.07;;;77.70;2227.20;;;;;;5064362;28;20029;-80
2023/01/30 07:16:27;;;;;;;;;;;77.70;2227.20;;;;;;5059282;28;20025;-79
2023/01/30 07:18:56;;;;;;;20.35;11.38;;;77.70;2227.20;;;;;;5044161;28;19909;-80
2023/01/30 07:21:22;;;;;;;22.10;11.60;;;77.60;2227.20;;;;;;5047513;28;20174;-79
2023/01/30 07:23:47;;;;;;;;;;;77.70;2227.20;;;;;;5064812;28;20165;-78
2023/01/30 07:26:13;;;;;;;22.67;11.90;;;77.70;2227.20;;;;;;5049539;28;19967;-77
2023/01/30 07:28:38;;;;;;;;;;;77.70;2227.20;;;;;;5067630;28;20122;-78
2023/01/30 07:31:04;;;;;;;24.27;12.60;;;77.70;2227.20;;;;;;5057533;28;19981;-78
2023/01/30 07:33:30;;;;;;;;;;;77.70;2227.20;;;;;;5051151;28;20494;-77
2023/01/30 07:35:55;;;;;;;26.83;14.68;;;77.70;2227.20;;;;;;5050575;28;19948;-78
2023/01/30 07:38:21;;;;;;;;;;;102.40;2227.20;;;;;;5060048;28;20040;-78
2023/01/30 07:40:47;;;;;;;25.05;13.05;;;77.70;2227.20;;;;;;5065505;28;20328;-78
2023/01/30 07:43:13;;;;;;;;;;;77.70;2227.20;;;;;;5054537;28;20055;-78
2023/01/30 07:45:44;;;;;;;29.33;12.90;;;77.70;2227.20;;;;;;5066995;28;20079;-77
2023/01/30 07:48:12;;;;;;;25.42;13.82;;;77.70;2227.20;;;;;;5053798;28;20063;-77
2023/01/30 07:50:38;;;;;;;30.75;16.52;;;102.40;2227.20;;;;;;5053148;28;20033;-76
2023/01/30 07:53:04;;;;;;;;;;;102.50;2227.20;;;;;;5068411;28;20055;-76
2023/01/30 07:55:31;;;;;;;27.93;13.60;;;102.40;2227.20;;;;;;5052424;28;19913;-78
2023/01/30 07:57:56;;;;;;;27.77;13.82;;;102.50;2227.20;;;;;;5066335;28;20274;-76
2023/01/30 08:00:22;;;;;;;;;;;102.40;2227.20;;;;;;5057962;28;20024;-76
2023/01/30 08:02:48;;;;;;;29.65;15.57;;;102.50;2227.20;;;;;;5041536;28;19947;-76
2023/01/30 08:05:14;;;;;;;;;;;102.50;2227.20;;;;;;5048282;28;20498;-77
2023/01/30 08:07:40;;;;;;;19.58;10.02;;;102.50;2227.20;;;;;;5040445;28;19913;-75
2023/01/30 08:10:06;;;;;;;;;;;102.50;2227.20;;;;;;5040796;28;20033;-74
2023/01/30 08:12:31;;;;;;;26.98;13.07;;;102.50;2227.20;;;;;;5063659;28;19999;-76
2023/01/30 08:14:57;;;;;;;;;;;102.50;2227.20;;;;;;5042606;28;20386;-76
2023/01/30 08:17:23;;;;;;;24.08;12.68;;;102.50;2227.20;;;;;;5043689;28;19908;-77
2023/01/30 08:19:48;;;;;;;;;;;102.50;2227.20;;;;;;5041937;28;20028;-77
2023/01/30 08:22:14;;;;;;;23.92;12.38;;;102.60;2227.20;;;;;;5044258;28;19909;-76
2023/01/30 08:24:39;;;;;;;;;;;102.60;2227.20;;;;;;5051804;28;20053;-77
2023/01/30 08:27:05;;;;;;;22.48;11.70;;;102.50;2227.20;;;;;;5046711;28;19943;-77
2023/01/30 08:29:31;;;;;;;;;;;102.50;2227.20;;;;;;5057847;28;20028;-77
2023/01/30 08:32:00;;;;;;;24.92;12.90;;;102.60;2227.20;;;;;;5067427;28;19948;-78
2023/01/30 08:34:26;;;;;;;20.92;11.73;;;102.70;2227.20;;;;;;5048802;28;20032;-76
2023/01/30 08:36:52;;;;;;;19.90;11.10;;;102.60;2227.20;;;;;;5063099;28;20035;-78
2023/01/30 08:39:18;;;;;;;;;;;102.60;2227.20;;;;;;5069052;28;20374;-76
2023/01/30 08:41:44;;;;;;;21.58;10.50;;;102.80;2227.20;;;;;;5050652;28;19991;-77
2023/01/30 08:44:10;;;;;;;;;;;102.80;2227.20;;;;;;5051419;28;20068;-76
2023/01/30 08:46:36;;;;;;;21.20;11.60;;;102.70;2227.20;;;;;;5066166;28;20341;-81
2023/01/30 08:49:02;;;;;;;22.20;10.82;;;102.70;2227.20;;;;;;5044496;28;20466;-77
2023/01/30 08:51:28;;;;;;;;;;;102.70;2227.20;;;;;;5057232;28;20040;-76
2023/01/30 08:53:53;;;;;;;24.42;11.85;;;102.80;2227.20;;;;;;5057190;28;19921;-77
2023/01/30 08:56:19;;;;;;;;;;;102.80;2227.20;;;;;;5065646;28;20032;-76
2023/01/30 08:58:45;;;;;;;17.00;9.32;;;103.00;2227.20;;;;;;5041920;28;19905;-75
2023/01/30 09:01:11;;;;;;;21.05;11.02;;;102.90;2227.20;;;;;;5053222;28;20025;-78
2023/01/30 09:03:37;;;;;;;22.83;11.77;;;103.00;2227.20;;;;;;5047838;28;20028;-74
2023/01/30 09:06:03;;;;;;;;;;;103.00;2227.20;;;;;;5067721;28;20037;-76
2023/01/30 09:08:29;;;;;;;22.50;12.93;;;103.10;2227.20;;;;;;5061091;28;19931;-78
2023/01/30 09:11:02;;;;;;;;;;;103.20;2227.20;;;;;;5060380;28;20043;-77
2023/01/30 09:13:29;;;;;;;21.92;11.45;;;103.20;2227.20;;;;;;5042415;28;19948;-77
2023/01/30 09:15:56;;;;;;;20.88;10.80;;;103.20;2227.20;;;;;;5042756;28;20029;-75
2023/01/30 09:18:22;;;;;;;20.65;9.90;;;103.30;2227.20;;;;;;5058846;28;20028;-77
2023/01/30 09:20:47;;;;;;;;;;;103.20;2227.20;;;;;;5062675;28;20387;-75
2023/01/30 09:23:13;;;;;;;24.92;12.60;;;103.30;2227.20;;;;;;5049034;28;19963;-76
2023/01/30 09:25:39;;;;;;;;;;;103.30;2227.20;;;;;;5045171;28;20037;-77
2023/01/30 09:28:04;;;;;;;21.70;12.13;;;103.30;2227.20;;;;;;5047072;28;19966;-74
2023/01/30 09:30:30;;;;;;;;;;;103.20;2227.20;;;;;;5059858;28;20112;-76
2023/01/30 09:32:56;;;;;;;16.08;7.80;;;128.00;2252.80;;;;;;5054794;28;19908;-74
2023/01/30 09:35:21;;;;;;;;;;;128.00;2227.20;;;;;;5061421;28;20053;-74
2023/01/30 09:37:52;;;;;;;14.18;7.35;;;128.20;2227.20;;;;;;5059108;28;19912;-78
2023/01/30 09:40:27;;;;;;;16.33;8.52;;;128.30;2176.00;;;;;;5049085;28;20382;-74
2023/01/30 09:43:05;;;;;;;14.93;7.88;;;128.40;2124.80;;;;;;5063788;28;20382;-78
2023/01/30 09:45:40;;;;;;;13.52;7.05;;;128.60;2124.80;;;;;;5041854;28;20556;-76
2023/01/30 09:48:57;;;;;;;13.65;7.30;;;128.50;2073.60;;;;;;5044642;28;20017;-76
2023/01/30 09:51:51;;;;;;;11.75;6.30;;;128.40;2048.00;;;;;;4955488;28;20062;-75
2023/01/30 09:54:25;;;;;;;13.35;7.05;;;128.30;2022.40;;;;;;4954473;28;20042;-77
2023/01/30 09:57:01;;;;;;;10.77;5.90;;;128.40;1971.20;;;;;;4975971;28;20058;-77
2023/01/30 09:59:39;;;;;;;11.32;6.13;;;128.50;1996.80;;;;;;4978267;28;20559;-79
2023/01/30 10:02:08;;;;;;;10.73;6.78;;;128.30;2022.40;;;;;;4969383;28;20038;-77
2023/01/30 10:04:38;;;;;;;9.80;6.38;;;128.40;1996.80;;;;;;4946381;28;20050;-78
2023/01/30 10:07:10;;;;;;;12.85;7.32;;;128.40;1971.20;;;;;;4973828;28;20869;-78
2023/01/30 10:09:55;;;;;;;16.17;7.68;;;128.60;1996.80;;;;;;4954888;28;20039;-77
2023/01/30 10:13:05;;;;;;;17.45;8.63;;;128.50;1971.20;;;;;;4956185;28;20068;-78
2023/01/30 10:15:48;;;;;;;26.25;8.05;;;128.80;1971.20;;;;;;4893001;29;20112;-80
2023/01/30 10:18:23;;;;;;;14.77;7.53;;;128.90;1945.60;;;;;;4900317;29;20041;-82
2023/01/30 10:20:55;;;;;;;13.73;7.47;;;153.90;1945.60;;;;;;4884719;28;20036;-77
2023/01/30 10:23:35;;;;;;;10.80;7.05;;;153.70;1945.60;;;;;;4972094;28;20050;-78
2023/01/30 10:26:09;;;;;;;13.07;7.43;;;153.80;1945.60;;;;;;4958995;28;20046;-78
2023/01/30 10:28:42;;;;;;;16.40;9.43;;;153.80;1971.20;;;;;;4976930;28;20401;-78
2023/01/30 10:31:14;;;;;;;13.13;7.28;;;153.80;1945.60;;;;;;4958182;28;20038;-78
2023/01/30 10:33:57;;;;;;;14.60;7.72;;;154.10;1920.00;;;;;;4962691;28;20023;-78
2023/01/30 10:36:52;;;;;;;14.77;7.78;;;154.10;1894.40;;;;;;4956720;28;20038;-78
2023/01/30 10:39:46;;;;;;;14.13;7.72;;;179.40;1843.20;;;;;;4938668;28;20031;-79
2023/01/30 10:42:18;;;;;;;12.57;6.75;;;179.60;1792.00;;;;;;4956814;28;20433;-78
2023/01/30 10:44:46;;;;;;;12.20;6.88;;;179.80;1766.40;;;;;;4937581;28;20043;-78
2023/01/30 10:47:56;;;;;;;11.85;7.70;;;180.10;1740.80;;;;;;4960271;28;20110;-78
2023/01/30 10:50:47;;;;;;;13.02;7.60;;;180.10;1740.80;;;;;;4964815;28;20035;-77
2023/01/30 10:53:21;;;;;;;14.63;7.30;;;180.10;1740.80;;;;;;4972788;28;20042;-78
2023/01/30 10:55:55;;;;;;;16.27;8.90;;;180.00;1740.80;;;;;;4978850;28;20057;-79
2023/01/30 10:58:38;;;;;;;18.10;8.75;;;179.60;1740.80;;;;;;4994061;28;20036;-77
2023/01/30 11:01:14;;;;;;;17.17;8.75;;;179.50;1792.00;;;;;;4975812;28;20050;-78
2023/01/30 11:03:49;;;;;;;12.13;7.13;;;179.90;1740.80;;;;;;4977755;28;20126;-77
2023/01/30 11:06:33;;;;;;;13.55;7.63;;;154.50;1792.00;;;;;;4968708;28;20034;-78
2023/01/30 11:08:59;;;;;;;14.90;8.23;;;154.50;1817.60;;;;;;4994024;28;20143;-77
2023/01/30 11:11:25;;;;;;;;;;;179.40;1792.00;;;;;;4994916;28;20030;-78
2023/01/30 11:14:02;;;;;;;12.38;6.57;;;179.30;1792.00;;;;;;4987862;28;19906;-78
2023/01/30 11:16:28;;;;;;;13.57;7.95;;;179.60;1740.80;;;;;;5020417;28;20121;-77
2023/01/30 11:18:57;;;;;;;;;;;179.90;1740.80;;;;;;5053213;28;20115;-77
2023/01/30 11:21:29;;;;;;;14.70;7.45;;;179.90;1715.20;;;;;;5050333;28;19909;-77
2023/01/30 11:23:55;;;;;;;13.80;7.28;;;179.70;1740.80;;;;;;5067299;28;20037;-76
2023/01/30 11:26:28;;;;;;;;;;;179.70;1740.80;;;;;;5051820;28;20490;-78
2023/01/30 11:28:54;;;;;;;14.10;8.60;;;179.70;1740.80;;;;;;5050028;28;19992;-79
2023/01/30 11:31:21;;;;;;;;;;;179.40;1766.40;;;;;;5046664;28;20123;-78
2023/01/30 11:34:04;;;;;;;12.07;6.63;;;179.70;1740.80;;;;;;5045553;28;19905;-78
2023/01/30 11:36:34;;;;;;;11.90;6.60;;;180.10;1689.60;;;;;;5052961;28;20145;-78
2023/01/30 11:39:22;;;;;;;18.77;9.13;;;205.20;1689.60;;;;;;5051333;28;20119;-79
2023/01/30 11:41:57;;;;;;;12.20;7.53;;;205.60;1664.00;;;;;;5040710;28;20108;-78
2023/01/30 11:44:34;;;;;;;18.73;7.97;;;205.60;1612.80;;;;;;5050223;28;20036;-77
2023/01/30 11:47:08;;;;;;;21.23;10.27;;;230.40;1638.40;;;;;;5054018;28;20035;-78
2023/01/30 11:49:41;;;;;;;18.33;9.77;;;205.20;1715.20;;;;;;5050908;28;20024;-77
2023/01/30 11:52:07;;;;;;;21.13;11.45;;;205.10;1715.20;;;;;;5048392;28;20037;-77
2023/01/30 11:54:38;;;;;;;;;;;205.30;1740.80;;;;;;5052242;28;20079;-77
2023/01/30 11:57:09;;;;;;;16.67;8.52;;;205.70;1689.60;;;;;;5045301;28;20247;-77
2023/01/30 11:59:43;;;;;;;15.63;9.38;;;205.40;1715.20;;;;;;5049186;28;20018;-76
2023/01/30 12:02:29;;;;;;;14.68;9.05;;;205.50;1740.80;;;;;;5042552;28;20095;-77
2023/01/30 12:04:59;;;;;;;17.90;9.85;;;205.70;1689.60;;;;;;5049802;28;20039;-78
2023/01/30 12:07:28;;;;;;;14.68;8.52;;;230.50;1689.60;;;;;;5045192;28;20020;-81
2023/01/30 12:09:54;;;;;;;21.63;9.63;;;230.70;1664.00;;;;;;5041757;28;20025;-77
2023/01/30 12:12:26;;;;;;;13.00;8.13;;;205.50;1689.60;;;;;;5048349;28;20060;-76
2023/01/30 12:15:00;;;;;;;19.48;9.77;;;205.50;1689.60;;;;;;5042955;28;20020;-78
2023/01/30 12:17:46;;;;;;;16.75;10.10;;;230.60;1689.60;;;;;;5049903;28;20021;-78
2023/01/30 12:20:17;;;;;;;15.27;8.85;;;204.80;1740.80;;;;;;5059537;28;20025;-78
2023/01/30 12:23:08;;;;;;;18.17;9.40;;;180.00;1792.00;;;;;;5045773;28;20032;-78
2023/01/30 12:25:51;;;;;;;17.52;9.88;;;180.10;1817.60;;;;;;5049076;28;20493;-79
2023/01/30 12:28:39;;;;;;;25.63;11.55;;;179.70;1843.20;;;;;;5049346;28;20020;-82
2023/01/30 12:31:15;;;;;;;19.30;11.10;;;179.70;1894.40;;;;;;5041719;28;20029;-78
2023/01/30 12:33:40;;;;;;;19.85;10.32;;;179.90;1843.20;;;;;;5057962;28;20053;-79
2023/01/30 12:36:24;;;;;;;;;;;179.70;1843.20;;;;;;5056188;28;20478;-78
2023/01/30 12:39:34;;;;;;;22.85;10.32;;;179.40;1868.80;;;;;;5058699;28;19996;-80
2023/01/30 12:42:35;;;;;;;23.85;12.55;;;179.20;1894.40;;;;;;4973393;28;20027;-80
2023/01/30 12:45:19;;;;;;;21.02;10.48;;;154.50;1971.20;;;;;;4937933;29;20043;-78
2023/01/30 12:48:12;;;;;;;25.65;12.50;;;154.20;1996.80;;;;;;4920692;29;20047;-79
2023/01/30 12:50:40;;;;;;;22.65;11.43;;;154.20;2022.40;;;;;;4918582;29;20043;-79
2023/01/30 12:53:14;;;;;;;21.17;10.88;;;154.20;2022.40;;;;;;4921624;29;20052;-79